Surfside, CA (90743)

9:22 AM PST on February 12, 2016 (GMT -0800)
Surfside | | Change Station
CLOSE
Current Station
Personal Weather Station
Location: Surfside, CA
Elevation: 40 ft
Nearby Weather Stations
Active Advisory: High Surf Advisory

Elev 40 ft 33.73 °N, 118.08 °W | Updated 12 minutes ago

Clear
Clear
62.9 °F
Feels Like 62.9 °F
N
0.0
Wind Variable Wind from South
Gusts 3.0 mph

Today
High -- | Low -- °F
--% Chance of Precip.
Yesterday
High -- | Low -- °F
Precip. -- in
Pressure 30.12 in
Visibility 10.0 miles
Clouds Few 30000 ft
Dew Point 51 °F
Humidity 65%
Rainfall 0.00 in
Snow Depth Not available.
6:39 AM 5:33 PM
Waxing Crescent, 22% visible
METAR KSLI 121658Z 00000KT 10SM FEW300 18/04 A3011 RMK AO2A SLP199 T01780044
Pressure 30.12 in
Visibility 10.0 miles
Clouds Few 30000 ft
Dew Point 51 °F
Humidity 65%
Rainfall 0.00 in
Snow Depth Not available.
6:39 AM 5:33 PM
Waxing Crescent, 22% visible
METAR KSLI 121658Z 00000KT 10SM FEW300 18/04 A3011 RMK AO2A SLP199 T01780044

10-Day Weather Forecast

Almanac

Astronomy

Feb. 12, 2016 Rise Set
Actual Time
Civil Twilight
Nautical Twilight
Astronomical Twilight
Moon
Length of Visible Light
Length of Day
Tomorrow will be .
, % of the Moon is Illuminated

Today's Extremes

State Highs State Lows

Community

WunderPhotos

Upload Photos

1,892,353 photos uploaded!

WunderBlog® & News

Nearby

Air Quality

  Air Quality AQ Index Pollutant
Not available.

Snow Depth

Station Depth Elevation

Earthquake Activity

City Distance Mag. Time & Date
Minimum magnitude displayed is 2.5.

Coastal Water Temperatures

Place Temperature

Stations

Nearby Weather Stations

Station Location Temp. Windchill Dew Point Humidity Wind Precip. Elev Updated Type
                   

Watches & Warnings

High Surf Advisory
Issued: 3:23 AM PST Feb. 12, 2016 – National Weather Service

... High surf advisory remains in effect from 10 am this morning
to 8 PM PST Sunday...

* swell... 8 to 9 ft at 17 to 18 seconds from the west-northwest
around 290 degrees.

* Waves and surf... 3 to 6 ft today... building to 4 to 7 ft by
Saturday. Local sets to 8 ft north of Newport Beach and south of
del Mar. Surf slowly lowering Sunday afternoon.

* Impacts... high surf and strong rip currents will create
dangerous swimming conditions. Minor beach erosion is also
possible. Larger waves may over-top jetties or sea walls at
times.

Precautionary/preparedness actions...

A high surf advisory means that high surf will affect beaches in
the advisory area... producing rip currents and localized beach
erosion.